PWSweather.com
Personal Weather Stations
Station Observations
J24K28P63
Vysocina, PocatkyCZ 39464

VysocinaPocatkyCZ 39464

Lat: 49.2594238, Lon: 15.2331769

Elevation: 2011

Station Type: Vantage Pro2+

http://meteo-jirkalina.com

Latest ConditionsUpdated 5:00:11 PM GMT+01:01 Monday, Oct 15, 2018
Currently Today's Max Today's Min Today's Average
Temperature 57.2°F14.0°C 72.4°F22.4°C 51.0°F10.6°C 62.1°F16.7°C
Dew Point 29.8°F-1.2°C 45.3°F7.4°C 21.0°F-6.1°C 37.0°F2.8°C
Winds 8.1 mph SE13.0 kmh SE 17.4 mph -28.0 kmh - - 5.5 mph 8.9 kmh
Wind Gusts 9.0 mph14.5 kmh 27.0 mph43.5 kmh - -
Humidity 35% 60% 23% 40%
Pressure 30.04 in1017.3 mb 30.07 in1018.3 mb 30.01 in1016.3 mb -
Hour Temp Dew Point Humidity Winds Wind Gusts Pressure Precip Precip Rate Daily Precip Total
05:00 PM 57.2°F14.0°C 29.8°F-1.2°C 35% 8.1 mph SE13.0 kmh SE 9.0 mph14.5 kmh 30.04 in1017.3 mb - 0.00 in0.0 mm 0.00 in0.0 mm
04:50 PM 66.4°F19.1°C 45.0°F7.2°C 46% 5.0 mph E8.0 kmh E 7.0 mph11.3 kmh 30.04 in1017.3 mb - 0.00 in0.0 mm 0.00 in0.0 mm
04:40 PM 66.8°F19.3°C 45.3°F7.4°C 46% 6.0 mph E9.7 kmh E 9.0 mph14.5 kmh 30.04 in1017.3 mb - 0.00 in0.0 mm 0.00 in0.0 mm
04:30 PM 58.3°F14.6°C 28.5°F-1.9°C 32% 10.6 mph ESE17.1 kmh ESE 17.0 mph27.4 kmh 30.04 in1017.3 mb - 0.00 in0.0 mm 0.00 in0.0 mm
04:20 PM 68.5°F20.3°C 44.5°F6.9°C 42% 3.0 mph E4.8 kmh E 8.0 mph12.9 kmh 30.03 in1016.9 mb - 0.00 in0.0 mm 0.00 in0.0 mm
04:10 PM 68.9°F20.5°C 44.2°F6.8°C 41% 5.0 mph E8.0 kmh E 9.0 mph14.5 kmh 30.02 in1016.6 mb - 0.00 in0.0 mm 0.00 in0.0 mm
04:00 PM 59.7°F15.4°C 27.3°F-2.6°C 29% 13.1 mph ESE21.1 kmh ESE 21.0 mph33.8 kmh 30.03 in1016.9 mb - 0.00 in0.0 mm 0.00 in0.0 mm
03:50 PM 68.5°F20.3°C 43.9°F6.6°C 41% 3.0 mph ENE4.8 kmh ENE 5.0 mph8.0 kmh 30.02 in1016.6 mb - 0.00 in0.0 mm 0.00 in0.0 mm
03:40 PM 68.8°F20.4°C 43.5°F6.4°C 40% 3.0 mph E4.8 kmh E 7.0 mph11.3 kmh 30.02 in1016.6 mb - 0.00 in0.0 mm 0.00 in0.0 mm
03:30 PM 60.4°F15.8°C 26.2°F-3.2°C 27% 9.7 mph SE15.6 kmh SE 15.0 mph24.1 kmh 30.04 in1017.3 mb - 0.00 in0.0 mm 0.00 in0.0 mm
03:20 PM 68.9°F20.5°C 42.9°F6.1°C 39% 3.0 mph ESE4.8 kmh ESE 5.0 mph8.0 kmh 30.02 in1016.6 mb - 0.00 in0.0 mm 0.00 in0.0 mm
03:10 PM 69.0°F20.6°C 42.3°F5.7°C 38% 3.0 mph ESE4.8 kmh ESE 8.0 mph12.9 kmh 30.02 in1016.6 mb - 0.00 in0.0 mm 0.00 in0.0 mm
03:00 PM 69.3°F20.7°C 42.6°F5.9°C 38% 5.0 mph E8.0 kmh E 3.0 mph4.8 kmh 30.02 in1016.6 mb - 0.00 in0.0 mm 0.00 in0.0 mm
02:50 PM 70.0°F21.1°C 42.5°F5.8°C 37% 2.0 mph E3.2 kmh E 5.0 mph8.0 kmh 30.03 in1016.9 mb - 0.00 in0.0 mm 0.00 in0.0 mm
02:40 PM 71.2°F21.8°C 42.1°F5.6°C 35% 2.0 mph E3.2 kmh E 6.0 mph9.7 kmh 30.03 in1016.9 mb - 0.00 in0.0 mm 0.00 in0.0 mm
02:30 PM 72.3°F22.4°C 42.3°F5.7°C 34% 5.0 mph SE8.0 kmh SE 9.0 mph14.5 kmh 30.03 in1016.9 mb - 0.00 in0.0 mm 0.00 in0.0 mm
02:20 PM 72.1°F22.3°C 42.2°F5.7°C 34% 7.0 mph ENE11.3 kmh ENE 12.0 mph19.3 kmh 30.03 in1016.9 mb - 0.00 in0.0 mm 0.00 in0.0 mm
02:10 PM 70.6°F21.4°C 42.3°F5.7°C 36% 5.0 mph ENE8.0 kmh ENE 7.0 mph11.3 kmh 30.03 in1016.9 mb - 0.00 in0.0 mm 0.00 in0.0 mm
02:00 PM 70.1°F21.2°C 41.9°F5.5°C 36% 7.0 mph E11.3 kmh E 10.0 mph16.1 kmh 30.03 in1016.9 mb - 0.00 in0.0 mm 0.00 in0.0 mm
01:50 PM 70.3°F21.3°C 42.1°F5.6°C 36% 5.0 mph E8.0 kmh E 8.0 mph12.9 kmh 30.03 in1016.9 mb - 0.00 in0.0 mm 0.00 in0.0 mm
01:40 PM 70.2°F21.2°C 41.3°F5.2°C 35% 3.0 mph E4.8 kmh E 7.0 mph11.3 kmh 30.03 in1016.9 mb - 0.00 in0.0 mm 0.00 in0.0 mm
01:30 PM 70.0°F21.1°C 41.8°F5.4°C 36% 5.0 mph E8.0 kmh E 8.0 mph12.9 kmh 30.03 in1016.9 mb - 0.00 in0.0 mm 0.00 in0.0 mm
01:20 PM 70.0°F21.1°C 41.8°F5.4°C 36% 5.0 mph E8.0 kmh E 9.0 mph14.5 kmh 30.03 in1016.9 mb - 0.00 in0.0 mm 0.00 in0.0 mm
01:10 PM 70.2°F21.2°C 40.5°F4.7°C 34% 7.0 mph E11.3 kmh E 9.0 mph14.5 kmh 30.03 in1016.9 mb - 0.00 in0.0 mm 0.00 in0.0 mm
01:00 PM 70.8°F21.6°C 41.0°F5.0°C 34% 5.0 mph E8.0 kmh E 7.0 mph11.3 kmh 30.03 in1016.9 mb - 0.00 in0.0 mm 0.00 in0.0 mm
12:50 PM 71.4°F21.9°C 41.6°F5.3°C 34% 3.0 mph E4.8 kmh E 3.0 mph4.8 kmh 30.03 in1016.9 mb - 0.00 in0.0 mm 0.00 in0.0 mm
12:40 PM 72.4°F22.4°C 41.6°F5.3°C 33% 5.0 mph E8.0 kmh E 9.0 mph14.5 kmh 30.04 in1017.3 mb - 0.00 in0.0 mm 0.00 in0.0 mm
12:30 PM 63.1°F17.3°C 26.7°F-2.9°C 25% 10.0 mph SE16.1 kmh SE 17.0 mph27.4 kmh 30.03 in1016.9 mb - 0.00 in0.0 mm 0.00 in0.0 mm
12:20 PM 69.5°F20.8°C 41.3°F5.2°C 36% 2.0 mph E3.2 kmh E 3.0 mph4.8 kmh 30.04 in1017.3 mb - 0.00 in0.0 mm 0.00 in0.0 mm
12:10 PM 70.5°F21.4°C 40.8°F4.9°C 34% 2.0 mph ENE3.2 kmh ENE 8.0 mph12.9 kmh 30.05 in1017.6 mb - 0.00 in0.0 mm 0.00 in0.0 mm
12:00 PM 71.7°F22.1°C 41.9°F5.5°C 34% 3.0 mph SE4.8 kmh SE 3.0 mph4.8 kmh 30.05 in1017.6 mb - 0.00 in0.0 mm 0.00 in0.0 mm
11:50 AM 71.7°F22.1°C 41.8°F5.4°C 34% 3.0 mph E4.8 kmh E 8.0 mph12.9 kmh 30.05 in1017.6 mb - 0.00 in0.0 mm 0.00 in0.0 mm
11:40 AM 70.2°F21.2°C 43.4°F6.3°C 38% 1.0 mph SE1.6 kmh SE 2.0 mph3.2 kmh 30.05 in1017.6 mb - 0.00 in0.0 mm 0.00 in0.0 mm
11:30 AM 61.5°F16.4°C 23.3°F-4.8°C 23% 13.7 mph SE22.0 kmh SE 21.0 mph33.8 kmh 30.05 in1017.6 mb - 0.00 in0.0 mm 0.00 in0.0 mm
11:20 AM 67.1°F19.5°C 41.3°F5.2°C 39% 1.0 mph SE1.6 kmh SE 3.0 mph4.8 kmh 30.06 in1017.9 mb - 0.00 in0.0 mm 0.00 in0.0 mm
11:10 AM 67.3°F19.6°C 40.8°F4.9°C 38% 1.0 mph SE1.6 kmh SE 1.0 mph1.6 kmh 30.06 in1017.9 mb - 0.00 in0.0 mm 0.00 in0.0 mm
11:00 AM 66.0°F18.9°C 41.6°F5.3°C 41% 1.0 mph E1.6 kmh E 3.0 mph4.8 kmh 30.06 in1017.9 mb - 0.00 in0.0 mm 0.00 in0.0 mm
10:50 AM 65.2°F18.4°C 41.5°F5.3°C 42% 1.0 mph E1.6 kmh E 2.0 mph3.2 kmh 30.06 in1017.9 mb - 0.00 in0.0 mm 0.00 in0.0 mm
10:40 AM 64.9°F18.3°C 42.5°F5.8°C 44% 1.0 mph E1.6 kmh E 1.0 mph1.6 kmh 30.06 in1017.9 mb - 0.00 in0.0 mm 0.00 in0.0 mm
10:30 AM 58.4°F14.7°C 22.6°F-5.2°C 25% 10.0 mph E16.1 kmh E 18.0 mph29.0 kmh 30.05 in1017.6 mb - 0.00 in0.0 mm 0.00 in0.0 mm
10:20 AM 64.2°F17.9°C 41.2°F5.1°C 43% 2.0 mph E3.2 kmh E 3.0 mph4.8 kmh 30.07 in1018.3 mb - 0.00 in0.0 mm 0.00 in0.0 mm
10:10 AM 63.6°F17.6°C 41.3°F5.2°C 44% 3.0 mph E4.8 kmh E 3.0 mph4.8 kmh 30.07 in1018.3 mb - 0.00 in0.0 mm 0.00 in0.0 mm
10:00 AM 63.6°F17.6°C 41.9°F5.5°C 45% 5.0 mph E8.0 kmh E 9.0 mph14.5 kmh 30.07 in1018.3 mb - 0.00 in0.0 mm 0.00 in0.0 mm
09:50 AM 63.0°F17.2°C 41.3°F5.2°C 45% 3.0 mph E4.8 kmh E 7.0 mph11.3 kmh 30.07 in1018.3 mb - 0.00 in0.0 mm 0.00 in0.0 mm
09:40 AM 62.7°F17.1°C 41.6°F5.3°C 46% 7.0 mph E11.3 kmh E 9.0 mph14.5 kmh 30.07 in1018.3 mb - 0.00 in0.0 mm 0.00 in0.0 mm
09:30 AM 61.9°F16.6°C 41.4°F5.2°C 47% 3.0 mph E4.8 kmh E 6.0 mph9.7 kmh 30.06 in1017.9 mb - 0.00 in0.0 mm 0.00 in0.0 mm
09:20 AM 62.0°F16.7°C 41.0°F5.0°C 46% 2.0 mph E3.2 kmh E 3.0 mph4.8 kmh 30.06 in1017.9 mb - 0.00 in0.0 mm 0.00 in0.0 mm
09:10 AM 61.6°F16.4°C 41.2°F5.1°C 47% 3.0 mph NE4.8 kmh NE 6.0 mph9.7 kmh 30.06 in1017.9 mb - 0.00 in0.0 mm 0.00 in0.0 mm
09:00 AM 60.0°F15.6°C 41.8°F5.4°C 51% 3.0 mph NE4.8 kmh NE 7.0 mph11.3 kmh 30.06 in1017.9 mb - 0.00 in0.0 mm 0.00 in0.0 mm
08:50 AM 59.0°F15.0°C 40.3°F4.6°C 50% 7.0 mph E11.3 kmh E 9.0 mph14.5 kmh 30.06 in1017.9 mb - 0.00 in0.0 mm 0.00 in0.0 mm
08:40 AM 57.9°F14.4°C 40.4°F4.7°C 52% 3.0 mph E4.8 kmh E 5.0 mph8.0 kmh 30.06 in1017.9 mb - 0.00 in0.0 mm 0.00 in0.0 mm
08:30 AM 55.3°F12.9°C 21.0°F-6.1°C 26% 17.4 mph ESE28.0 kmh ESE 27.0 mph43.5 kmh 30.02 in1016.6 mb - 0.00 in0.0 mm 0.00 in0.0 mm
08:20 AM 56.4°F13.6°C 40.0°F4.4°C 54% 3.0 mph E4.8 kmh E 7.0 mph11.3 kmh 30.06 in1017.9 mb - 0.00 in0.0 mm 0.00 in0.0 mm
08:10 AM 56.2°F13.4°C 39.7°F4.3°C 54% 2.0 mph E3.2 kmh E 5.0 mph8.0 kmh 30.06 in1017.9 mb - 0.00 in0.0 mm 0.00 in0.0 mm
08:00 AM 55.7°F13.2°C 39.3°F4.1°C 54% 3.0 mph E4.8 kmh E 5.0 mph8.0 kmh 30.06 in1017.9 mb - 0.00 in0.0 mm 0.00 in0.0 mm
07:50 AM 55.2°F12.9°C 38.8°F3.8°C 54% 2.0 mph E3.2 kmh E 5.0 mph8.0 kmh 30.06 in1017.9 mb - 0.00 in0.0 mm 0.00 in0.0 mm
07:40 AM 55.0°F12.8°C 39.1°F3.9°C 55% 3.0 mph ENE4.8 kmh ENE 3.0 mph4.8 kmh 30.06 in1017.9 mb - 0.00 in0.0 mm 0.00 in0.0 mm
07:30 AM 54.8°F12.7°C 38.9°F3.8°C 55% 3.0 mph E4.8 kmh E 3.0 mph4.8 kmh 30.06 in1017.9 mb - 0.00 in0.0 mm 0.00 in0.0 mm
07:20 AM 54.5°F12.5°C 39.6°F4.2°C 57% 2.0 mph E3.2 kmh E 3.0 mph4.8 kmh 30.06 in1017.9 mb - 0.00 in0.0 mm 0.00 in0.0 mm
07:10 AM 54.4°F12.4°C 39.5°F4.2°C 57% 2.0 mph E3.2 kmh E 3.0 mph4.8 kmh 30.06 in1017.9 mb - 0.00 in0.0 mm 0.00 in0.0 mm
07:00 AM 54.2°F12.3°C 39.3°F4.1°C 57% 2.0 mph E3.2 kmh E 3.0 mph4.8 kmh 30.06 in1017.9 mb - 0.00 in0.0 mm 0.00 in0.0 mm
06:50 AM 53.8°F12.1°C 39.4°F4.1°C 58% 5.0 mph E8.0 kmh E 7.0 mph11.3 kmh 30.05 in1017.6 mb - 0.00 in0.0 mm 0.00 in0.0 mm
06:40 AM 53.3°F11.8°C 39.8°F4.3°C 60% 3.0 mph E4.8 kmh E 5.0 mph8.0 kmh 30.05 in1017.6 mb - 0.00 in0.0 mm 0.00 in0.0 mm
06:30 AM 51.0°F10.6°C 23.6°F-4.7°C 34% 11.6 mph SE18.7 kmh SE 18.0 mph29.0 kmh 30.01 in1016.3 mb - 0.00 in0.0 mm 0.00 in0.0 mm
06:00 AM 51.1°F10.6°C 22.2°F-5.4°C 32% 9.2 mph E14.8 kmh E 18.0 mph29.0 kmh 30.02 in1016.6 mb - 0.00 in0.0 mm 0.00 in0.0 mm
05:30 AM 51.4°F10.8°C 21.7°F-5.7°C 31% 8.5 mph SE13.7 kmh SE 14.0 mph22.5 kmh 30.02 in1016.6 mb - 0.00 in0.0 mm 0.00 in0.0 mm
05:00 AM 52.0°F11.1°C 22.3°F-5.4°C 31% 10.1 mph E16.3 kmh E 14.0 mph22.5 kmh 30.02 in1016.6 mb - 0.00 in0.0 mm 0.00 in0.0 mm
04:30 AM 51.9°F11.1°C 24.4°F-4.2°C 34% 8.6 mph SSE13.8 kmh SSE 15.0 mph24.1 kmh 30.02 in1016.6 mb - 0.00 in0.0 mm 0.00 in0.0 mm
04:00 AM 51.7°F10.9°C 25.6°F-3.6°C 36% 10.2 mph E16.4 kmh E 13.0 mph20.9 kmh 30.02 in1016.6 mb - 0.00 in0.0 mm 0.00 in0.0 mm
03:30 AM 52.2°F11.2°C 26.7°F-2.9°C 37% 8.6 mph SE13.8 kmh SE 19.0 mph30.6 kmh 30.03 in1016.9 mb - 0.00 in0.0 mm 0.00 in0.0 mm
03:00 AM 52.2°F11.2°C 27.3°F-2.6°C 38% 10.2 mph E16.4 kmh E 17.0 mph27.4 kmh 30.02 in1016.6 mb - 0.00 in0.0 mm 0.00 in0.0 mm
02:30 AM 52.2°F11.2°C 28.0°F-2.2°C 39% 11.9 mph E19.2 kmh E 15.0 mph24.1 kmh 30.02 in1016.6 mb - 0.00 in0.0 mm 0.00 in0.0 mm
02:00 AM 52.6°F11.4°C 27.7°F-2.4°C 38% 11.1 mph S17.9 kmh S 16.0 mph25.7 kmh 30.02 in1016.6 mb - 0.00 in0.0 mm 0.00 in0.0 mm
01:30 AM 53.3°F11.8°C 27.7°F-2.4°C 37% 10.6 mph SE17.1 kmh SE 18.0 mph29.0 kmh 30.02 in1016.6 mb - 0.00 in0.0 mm 0.00 in0.0 mm
01:00 AM 54.1°F12.3°C 27.0°F-2.8°C 35% 11.0 mph SE17.7 kmh SE 21.0 mph33.8 kmh 30.02 in1016.6 mb - 0.00 in0.0 mm 0.00 in0.0 mm
12:30 AM 53.9°F12.2°C 27.5°F-2.5°C 36% 9.5 mph SE15.3 kmh SE 14.0 mph22.5 kmh 30.02 in1016.6 mb - 0.00 in0.0 mm 0.00 in0.0 mm
12:00 AM 54.1°F12.3°C 27.7°F-2.4°C 36% 11.0 mph SSE17.7 kmh SSE 16.0 mph25.7 kmh 30.02 in1016.6 mb - 0.00 in0.0 mm 0.00 in0.0 mm